CSUN New Campus Station -PST Time - Most Recent Data on bottom of page




           Date/Time      Avg      Avg      Max     Wind      Avg      Max      Min      Avg      Avg    Total      Avg     Batt
                         Wind     Wind     Wind      Dir     Temp     Temp     Temp       RH      Bar     Rain    Solar     Volt
                      Spd MPH      Dir  Spd MPH   at Max    Deg_F    Deg_F    Deg_F        % Press_mb   Inches     W/m2      Min
--------------------------------------------------------------------------------------------------------------------------------
    06/26/2015 00:00      0.1       35      1.7       35     67.5     67.8     67.2       61     1013     0.00        0     13.3
    06/26/2015 00:15      1.0       54      3.4       31     68.0     68.7     67.2       57     1013     0.00        0     13.3
    06/26/2015 00:30      1.8       47      3.3       40     68.7     68.9     68.4       58     1013     0.00        0     13.3
    06/26/2015 00:45      1.6       47      3.7       34     68.6     68.7     68.3       58     1012     0.00        0     13.3
    06/26/2015 01:00      1.6       70      3.5       60     68.6     68.8     68.3       60     1012     0.00        0     13.3
    06/26/2015 01:15      0.8       80      2.8       64     68.2     68.5     67.8       61     1012     0.00        0     13.3
    06/26/2015 01:30      2.2       72      4.1       55     67.9     68.1     67.5       62     1012     0.00        0     13.3
    06/26/2015 01:45      2.1       91      4.4       96     67.6     67.8     67.3       64     1013     0.00        0     13.3
    06/26/2015 02:00      1.4       72      3.9       82     67.2     67.6     66.8       66     1013     0.00        0     13.3
    06/26/2015 02:15      2.3       43      4.4       31     66.8     67.0     66.5       67     1013     0.00        0     13.3
    06/26/2015 02:30      2.2       58      5.4       66     66.6     66.9     66.3       68     1013     0.00        0     13.3
    06/26/2015 02:45      1.9       68      3.8       68     66.3     66.5     65.9       69     1012     0.00        0     13.3
    06/26/2015 03:00      1.2       83      2.6       96     65.9     66.1     65.6       71     1012     0.00        0     13.3
    06/26/2015 03:15      1.2      152      2.1      152     65.2     65.9     64.8       73     1012     0.00        0     13.3
    06/26/2015 03:30      1.0      133      2.1      148     64.7     65.0     64.4       74     1012     0.00        0     13.3
    06/26/2015 03:45      1.0      121      2.8      150     64.8     65.1     64.5       74     1012     0.00        0     13.3
    06/26/2015 04:00      0.9      141      2.1      139     64.4     64.7     64.1       75     1012     0.00        0     13.4
    06/26/2015 04:15      0.4      161      1.2      168     63.9     64.3     63.4       77     1012     0.00        0     13.4
    06/26/2015 04:30      0.6      121      2.2      101     63.5     63.8     63.3       78     1012     0.00        0     13.4
    06/26/2015 04:45      1.0      145      2.0      146     63.5     63.8     63.2       79     1013     0.00        1     13.4
    06/26/2015 05:00      0.0      103      1.6       65     63.1     63.4     62.7       79     1013     0.00        5     13.4
    06/26/2015 05:15      0.5       84      1.7       62     63.2     63.5     62.8       79     1013     0.00       11     13.4
    06/26/2015 05:30      0.9       74      2.7       93     63.7     63.9     63.3       79     1013     0.00       15     13.4
    06/26/2015 05:45      1.0      287      3.3      248     63.8     64.0     63.5       79     1013     0.00       26     13.4
    06/26/2015 06:00      2.5      260      4.4      253     64.5     65.6     63.7       75     1013     0.00      121     13.4
    06/26/2015 06:15      0.2      232      2.1      189     66.8     68.5     65.3       67     1013     0.00      160     13.3
    06/26/2015 06:30      1.3       71      3.8       72     68.8     69.5     68.1       67     1013     0.00      218     13.3
    06/26/2015 06:45      1.1       78      3.0       89     69.3     70.2     68.6       64     1014     0.00      267     13.3
    06/26/2015 07:00      1.4       80      3.5       94     70.6     70.9     70.1       63     1014     0.00      314     13.3
    06/26/2015 07:15      0.7      333      2.4       81     71.2     72.4     70.5       57     1013     0.00      362     13.2
    06/26/2015 07:30      1.1      184      3.2      200     72.3     72.9     71.8       57     1013     0.00      411     13.2
    06/26/2015 07:45      0.8      183      2.6      246     73.2     74.5     72.5       52     1014     0.00      445     13.2
    06/26/2015 08:00      1.2      244      3.2      259     74.6     75.8     74.2       51     1014     0.00      501     13.2
    06/26/2015 08:15      1.5      230      3.1      181     75.6     77.0     75.1       46     1014     0.00      548     13.2
    06/26/2015 08:30      1.2      191      3.9      165     77.9     79.4     76.7       43     1014     0.00      588     13.1
    06/26/2015 08:45      2.0      164      4.6      167     79.1     79.6     78.7       42     1014     0.00      631     13.1
    06/26/2015 09:00      2.5      133      4.6       76     79.8     80.8     79.2       37     1014     0.00      670     13.1
    06/26/2015 09:15      2.1      147      4.3      179     81.4     82.3     80.3       33     1013     0.00      710     13.1
    06/26/2015 09:30      1.6       92      4.6       89     82.6     83.9     81.3       31     1013     0.00      745     13.1
    06/26/2015 09:45      2.0      149      6.9      143     83.7     84.4     82.9       28     1013     0.00      776     13.1
    06/26/2015 10:00      3.7      128      8.4       90     84.7     85.2     84.1       30     1013     0.00      800     13.1
    06/26/2015 10:15      3.7      106      8.1      106     85.1     85.8     84.5       28     1014     0.00      822     13.0
    06/26/2015 10:30      3.1      103      8.5       90     86.5     87.0     85.8       29     1013     0.00      846     13.0
    06/26/2015 10:45      3.6      116      7.8       86     86.9     87.5     86.3       29     1013     0.00      864     13.0
    06/26/2015 11:00      4.7       88      8.9       77     87.0     87.6     86.6       30     1014     0.00      864     13.0
    06/26/2015 11:15      4.4       99     10.7       65     87.8     88.4     87.1       24     1014     0.00      890     13.0
    06/26/2015 11:30      4.1       97      7.2       80     88.8     89.2     88.2       28     1014     0.00      901     13.0
    06/26/2015 11:45      4.5      113      8.8      151     89.4     90.3     88.4       26     1014     0.00      911     13.0
    06/26/2015 12:00      4.3      118      8.4       93     89.5     90.4     88.9       21     1013     0.00      894     13.0
    06/26/2015 12:15      3.3      133      7.5      164     90.6     91.3     89.9       16     1013     0.00      806     13.0
    06/26/2015 12:30      3.7       95      8.4      113     91.3     91.9     90.8       13     1013     0.00      859     13.0
    06/26/2015 12:45      4.0       92      9.0      111     92.2     93.0     91.5       15     1013     0.00      930     13.0
    06/26/2015 13:00      4.6      121      8.5       87     92.7     93.4     92.0       14     1013     0.00      920     13.0
    06/26/2015 13:15      4.4       91      8.9       90     92.7     93.3     92.0       13     1013     0.00      915     13.0
    06/26/2015 13:30      4.1       94      8.6       91     93.6     94.7     92.9       14     1013     0.00      926     13.0
    06/26/2015 13:45      4.5      110     10.3       77     93.8     94.9     93.2       14     1012     0.00      706     13.0
    06/26/2015 14:00      5.1      102     12.2       77     93.7     94.5     92.8       13     1012     0.00      816     13.0
    06/26/2015 14:15      5.5      111     12.7      127     93.5     94.1     92.7       15     1012     0.00      797     13.0
    06/26/2015 14:30      5.3      122     10.9      146     93.0     93.7     92.4       15     1012     0.00      628     13.0
    06/26/2015 14:45      5.3      118     12.4      153     92.1     92.8     91.4       15     1012     0.00      685     13.0
    06/26/2015 15:00      4.6      105     11.6       83     91.0     91.8     90.3       13     1012     0.00      605     13.0
    06/26/2015 15:15      5.9       95     10.2       92     90.8     91.7     90.1       11     1012     0.00      694     13.0
    06/26/2015 15:30      5.3      103     11.5       84     91.0     92.0     90.3       13     1012     0.00      656     13.0
    06/26/2015 15:45      5.1       93     10.3       89     91.4     91.9     90.7       11     1012     0.00      594     13.0
    06/26/2015 16:00      3.6      101      8.6       97     91.3     91.8     90.9       12     1012     0.00      576     13.0
    06/26/2015 16:15      4.1       84      7.5       62     91.4     91.9     90.8       11     1012     0.00      530     13.0
    06/26/2015 16:30      3.0      107      7.2       97     91.7     92.2     91.3       11     1012     0.00      467     13.0
    06/26/2015 16:45      4.8       84      8.9       81     90.7     92.0     90.0       11     1012     0.00      303     13.0
    06/26/2015 17:00      4.4       85      7.9       81     90.4     90.9     89.5       10     1012     0.00      335     13.0
    06/26/2015 17:15      3.3      106      8.1      114     89.8     90.1     89.5       11     1012     0.00      200     13.0
    06/26/2015 17:30      3.9       98      7.2       85     89.6     90.0     89.1       12     1012     0.00      235     13.0
    06/26/2015 17:45      2.2      120      4.3      140     89.1     89.5     88.6       12     1012     0.00      119     13.0
    06/26/2015 18:00      2.2      129      4.7      144     88.0     88.7     87.3       14     1012     0.00       76     13.1
    06/26/2015 18:15      3.0      148      5.3      155     86.9     87.6     86.2       14     1012     0.00       53     13.1
    06/26/2015 18:30      1.8      117      4.1      106     86.3     86.5     86.0       15     1012     0.00       47     13.1
    06/26/2015 18:45      1.6      136      3.4      137     85.9     86.3     85.4       18     1012     0.00       32     13.1
    06/26/2015 19:00      1.3      145      3.1      149     84.9     85.8     84.2       23     1012     0.00       14     13.1
    06/26/2015 19:15      1.2      134      3.6      100     83.4     84.2     82.3       26     1012     0.00        6     13.1
    06/26/2015 19:30      1.6      114      4.7      108     81.7     82.5     81.3       28     1012     0.00        2     13.1
    06/26/2015 19:45      1.2       93      3.6       77     80.8     81.5     80.1       30     1012     0.00        0     13.1
    06/26/2015 20:00      1.1      143      3.7      148     79.2     80.2     78.3       34     1012     0.00        0     13.2
    06/26/2015 20:15      1.7      147      2.9      137     77.8     78.4     77.3       36     1012     0.00        0     13.2
    06/26/2015 20:30      1.4      141      3.6      134     77.1     77.5     76.7       37     1012     0.00        0     13.2
    06/26/2015 20:45      1.8      145      3.4      152     76.8     77.2     76.2       39     1012     0.00        0     13.2
    06/26/2015 21:00      1.2      144      3.0      153     76.1     76.5     75.8       40     1013     0.00        0     13.2
    06/26/2015 21:15      1.2      120      2.9       86     76.2     76.5     75.7       39     1013     0.00        0     13.2
    06/26/2015 21:30      1.3      142      3.9      166     75.2     75.8     74.8       36     1013     0.00        0     13.2
    06/26/2015 21:45      1.1      113      3.3       70     74.8     75.3     74.1       47     1013     0.00        0     13.2
    06/26/2015 22:00      1.3      114      3.2       90     73.7     74.5     73.1       51     1013     0.00        0     13.2
    06/26/2015 22:15      1.2      111      3.6      118     72.3     73.3     71.4       56     1013     0.00        0     13.3
    06/26/2015 22:30      1.7      120      3.8      109     70.7     71.6     69.7       60     1013     0.00        0     13.3
    06/26/2015 22:45      1.7      134      3.3      150     69.2     69.8     68.8       62     1013     0.00        0     13.3
    06/26/2015 23:00      1.7      117      4.8       76     69.1     69.3     68.8       63     1013     0.00        0     13.3
    06/26/2015 23:15      2.6       94      5.8      108     68.3     69.0     67.7       67     1013     0.00        0     13.3
    06/26/2015 23:30      3.1       87      5.7       68     67.3     67.8     66.7       69     1013     0.00        0     13.3
    06/26/2015 23:45      2.7       63      5.1       72     66.6     66.9     66.2       70     1013     0.00        0     13.3
    06/27/2015 00:00      1.6       95      3.7       93     66.3     66.5     66.0       71     1013     0.00        0     13.3
    06/27/2015 00:15      1.4      112      2.9      152     66.0     66.2     65.7       72     1013     0.00        0     13.3
    06/27/2015 00:30      1.9      104      3.2       80     65.7     65.9     65.4       73     1013     0.00        0     13.3
    06/27/2015 00:45      2.1       88      4.0       90     65.7     65.9     65.4       73     1013     0.00        0     13.3
    06/27/2015 01:00      0.1       50      1.8       49     65.3     65.6     64.8       74     1013     0.00        0     13.3
    06/27/2015 01:15      0.0        0      0.0      225     64.7     65.0     64.5       75     1013     0.00        0     13.3
    06/27/2015 01:30      1.0      112      3.3       93     64.8     65.3     64.4       74     1013     0.00        0     13.3
    06/27/2015 01:45      1.8       98      4.6       94     65.4     65.6     65.1       73     1013     0.00        0     13.3
    06/27/2015 02:00      2.0       75      4.1       68     65.5     65.6     65.2       73     1013     0.00        0     13.3
    06/27/2015 02:15      2.1       80      4.1       48     65.3     65.5     65.0       73     1013     0.00        0     13.3
    06/27/2015 02:30      0.8      211      2.5       83     64.7     65.2     64.0       75     1013     0.00        0     13.3
    06/27/2015 02:45      0.2      271      1.3      289     64.0     64.3     63.7       76     1013     0.00        0     13.3
    06/27/2015 03:00      0.7      206      2.4      249     63.9     64.2     63.6       77     1013     0.00        0     13.4
    06/27/2015 03:15      1.2      150      2.6      137     64.1     64.3     63.7       76     1013     0.00        0     13.4
    06/27/2015 03:30      1.7       99      3.4       89     64.1     64.3     64.0       76     1013     0.00        0     13.4
    06/27/2015 03:45      0.5      174      1.1      166     63.8     64.3     63.4       77     1013     0.00        0     13.4
    06/27/2015 04:00      0.0      191      0.6      187     63.3     63.5     63.1       78     1013     0.00        0     13.4
    06/27/2015 04:15      0.0        0      0.0      205     63.2     63.4     63.0       79     1013     0.00        0     13.4
    06/27/2015 04:30      0.2      311      1.1      327     63.4     63.6     63.1       77     1013     0.00        0     13.4
    06/27/2015 04:45      0.5      101      2.3       92     63.2     63.4     62.8       79     1013     0.00        1     13.4
    06/27/2015 05:00      0.8       98      2.7       94     63.5     63.8     63.1       77     1014     0.00        7     13.4
    06/27/2015 05:15      1.2       84      3.0       67     63.6     63.8     63.3       77     1014     0.00       16     13.4
    06/27/2015 05:30      1.0       56      2.4       42     63.9     64.2     63.6       76     1014     0.00       26     13.4
    06/27/2015 05:45      0.2       27      1.1       40     64.1     64.3     63.9       76     1014     0.00       34     13.4
    06/27/2015 06:00      0.5      187      1.4      220     64.7     65.5     64.0       74     1014     0.00      119     13.4
    06/27/2015 06:15      0.6      203      1.4      235     66.1     66.9     65.3       70     1014     0.00      166     13.3
    06/27/2015 06:30      1.4      161      4.2      132     67.6     68.0     66.9       67     1014     0.00      207     13.3
    06/27/2015 06:45      1.9      155      4.3      160     68.4     69.0     67.9       66     1015     0.00      250     13.3
    06/27/2015 07:00      1.4      180      3.4      185     69.2     69.4     68.8       64     1015     0.00      297     13.3
    06/27/2015 07:15      0.8      211      3.1      251     69.8     70.6     69.1       61     1015     0.00      341     13.2
    06/27/2015 07:30      0.7      190      2.4      196     70.5     71.3     70.1       60     1015     0.00      382     13.2
    06/27/2015 07:45      1.2      204      2.8      201     71.8     72.8     71.0       56     1015     0.00      419     13.2
    06/27/2015 08:00      0.9      248      2.4      236     73.1     73.5     72.6       53     1015     0.00      478     13.2
    06/27/2015 08:15      1.7      116      3.3      133     74.1     74.7     73.1       51     1015     0.00      510     13.2
    06/27/2015 08:30      1.3      164      3.3      195     75.1     76.0     74.3       49     1015     0.00      401     13.2
    06/27/2015 08:45      1.9      213      4.8      182     77.3     78.4     75.8       42     1015     0.00      627     13.2
    06/27/2015 09:00      2.4      214      4.8      206     78.2     78.8     77.9       40     1014     0.00      564     13.1
    06/27/2015 09:15      3.0      183      5.5      203     79.5     80.5     78.3       39     1014     0.00      697     13.1
    06/27/2015 09:30      2.7      177      6.7      169     81.4     82.1     80.4       35     1014     0.00      705     13.1
    06/27/2015 09:45      1.7      145      5.0      184     82.4     83.6     81.1       32     1015     0.00      723     13.1
    06/27/2015 10:00      2.0      116      5.1      139     83.7     84.4     82.7       30     1015     0.00      546     13.1
    06/27/2015 10:15      1.7      151      5.4      159     84.6     85.9     83.8       30     1014     0.00      683     13.1
    06/27/2015 10:30      2.7      138      6.0      160     85.7     86.3     85.0       26     1015     0.00      382     13.1
    06/27/2015 10:45      1.8      122      5.9      123     85.8     86.7     85.0       26     1015     0.00      559     13.1
    06/27/2015 11:00      4.6       89      9.7       69     86.8     87.2     86.3       26     1015     0.00      958     13.0
    06/27/2015 11:15      7.0       92     13.8       80     86.3     87.8     84.0       33     1015     0.00      735     13.0
    06/27/2015 11:30      6.2      103     13.7       93     83.0     84.8     81.2       39     1015     0.00      360     13.0
    06/27/2015 11:45      6.9       95     13.8       89     80.2     81.3     79.0       41     1015     0.00      211     13.1
    06/27/2015 12:00      4.4      106     11.9      104     78.4     79.0     77.9       45     1016     0.00      105     13.1
    06/27/2015 12:15      2.6      175      7.6      136     77.1     78.1     76.4       48     1015     0.00       92     13.1
    06/27/2015 12:30      1.5      303      6.3      333     77.3     78.2     76.4       44     1015     0.00       92     13.1
    06/27/2015 12:45      2.4      311      4.9      350     78.3     78.7     78.0       45     1014     0.00      111     13.2
    06/27/2015 13:00      2.6      269      6.4      290     80.0     81.8     78.6       38     1013     0.00      342     13.1
    06/27/2015 13:15      1.8       50      4.0       57     82.0     82.5     81.6       38     1013     0.00      276     13.1
    06/27/2015 13:30      4.5      181      9.0      197     82.3     83.3     81.5       36     1013     0.00      233     13.1
    06/27/2015 13:45      5.1      211     10.0      196     83.4     84.3     82.8       33     1013     0.00      332     13.1
    06/27/2015 14:00      3.4      248      8.9      248     85.0     85.5     84.3       29     1012     0.00      239     13.1
    06/27/2015 14:15      4.0      258      8.2      256     84.9     85.8     84.1       29     1012     0.00      254     13.1
    06/27/2015 14:30      2.7      258      6.8      262     85.4     86.0     84.5       27     1012     0.00      412     13.1
    06/27/2015 14:45      1.8      206      6.1      242     86.5     87.1     85.9       26     1012     0.00      316     13.1
    06/27/2015 15:00      1.8      214      4.8      194     86.7     87.3     86.1       24     1012     0.00      288     13.1
    06/27/2015 15:15      4.0      204      8.6      200     87.1     87.6     86.4       24     1012     0.00      308     13.1
    06/27/2015 15:30      4.3      186      8.9      186     86.3     87.6     84.9       33     1013     0.00      215     13.1
    06/27/2015 15:45      4.2       94     10.3      100     81.7     84.9     80.0       39     1013     0.00      201     13.1
    06/27/2015 16:00      5.4       82     10.8       55     78.8     80.1     77.7       43     1013     0.00      192     13.1
    06/27/2015 16:15      6.9       84     12.9       80     77.2     78.0     76.9       42     1013     0.00      285     13.1
    06/27/2015 16:30      5.1       88      9.9       83     77.3     77.7     77.0       42     1014     0.00      218     13.1
    06/27/2015 16:45      3.1       87      7.2       97     77.4     78.0     76.7       42     1014     0.00      128     13.1
    06/27/2015 17:00      3.1       88      7.1      108     76.6     77.0     76.3       42     1013     0.00       98     13.1
    06/27/2015 17:15      2.2       14      7.2      341     77.3     77.9     76.7       41     1013     0.00      113     13.2
    06/27/2015 17:30      3.7      321      9.4      307     78.2     78.4     77.8       42     1012     0.00       73     13.2
    06/27/2015 17:45      2.7      161      5.6      150     78.2     78.7     78.0       41     1011     0.00       38     13.2
    06/27/2015 18:00      1.5      142      5.3      141     78.4     78.7     78.1       41     1012     0.00       32     13.2
    06/27/2015 18:15      2.0      121      5.0      142     78.5     78.7     78.0       42     1012     0.00       24     13.2
    06/27/2015 18:30      1.7      116      5.7      144     78.0     78.3     77.8       43     1012     0.00       20     13.2
    06/27/2015 18:45      3.1      169      6.0      195     77.3     78.0     76.7       45     1012     0.00       20     13.2
    06/27/2015 19:00      0.0      265      1.3      254     76.9     77.1     76.6       43     1012     0.00        5     13.2
    06/27/2015 19:15      1.4      207      5.7      191     76.6     77.2     76.0       46     1012     0.00        1     13.2
    06/27/2015 19:30      2.1      259      6.0      192     76.6     77.4     76.0       41     1012     0.00        0     13.2
    06/27/2015 19:45      0.3      111      2.5       -0     77.5     77.7     77.3       42     1012     0.00        0     13.2
    06/27/2015 20:00      1.4      115      3.6       58     77.1     77.6     76.9       44     1012     0.00        0     13.2
    06/27/2015 20:15      1.1      120      2.8      158     76.8     77.2     76.4       45     1012     0.00        0     13.2
    06/27/2015 20:30      1.2      129      3.2      158     76.7     77.0     76.2       47     1012     0.00        0     13.2
    06/27/2015 20:45      0.6       96      2.4      159     76.5     76.8     76.1       45     1012     0.00        0     13.2
    06/27/2015 21:00      0.3        4      1.7      301     76.3     76.7     76.1       44     1012     0.00        0     13.2
    06/27/2015 21:15      0.6      106      2.4       86     76.8     77.2     76.4       46     1012     0.00        0     13.2
    06/27/2015 21:30      1.2      184      2.4      178     76.5     76.9     76.1       44     1012     0.00        0     13.2
    06/27/2015 21:45      2.2      207      4.7      202     76.5     76.8     76.2       36     1012     0.00        0     13.2
    06/27/2015 22:00      2.1      128      5.0       80     76.9     77.5     76.5       37     1012     0.00        0     13.2
    06/27/2015 22:15      1.4      114      4.0       89     76.5     77.5     75.9       49     1012     0.00        0     13.2
    06/27/2015 22:30      2.0       58      4.8       78     75.5     76.2     75.0       51     1012     0.00        0     13.2
    06/27/2015 22:45      1.7      134      4.6      102     74.6     75.2     74.0       53     1012     0.00        0     13.2
    06/27/2015 23:00      2.8       85      7.5      106     74.1     74.7     73.5       54     1012     0.00        0     13.2
    06/27/2015 23:15      2.0       38      5.4       32     73.4     73.7     73.2       54     1012     0.00        0     13.2
    06/27/2015 23:30      3.8       68      6.5       53     73.2     73.4     72.9       55     1012     0.00        0     13.2
    06/27/2015 23:45      3.8       63      6.7       91     73.0     73.3     72.8       56     1012     0.00        0     13.2
    06/28/2015 00:00      2.4       41      4.5       99     72.6     73.0     72.3       56     1012     0.00        0     13.2
    06/28/2015 00:15      1.5       11      3.8       47     72.6     72.9     72.3       57     1012     0.00        0     13.3
    06/28/2015 00:30      1.0      196      4.6      202     72.3     72.6     71.9       59     1011     0.00        0     13.2
    06/28/2015 00:45      1.9      171      4.3      188     72.2     72.4     71.8       58     1011     0.00        0     13.3
    06/28/2015 01:00      4.0      191      7.3      191     72.0     72.3     71.8       58     1012     0.00        0     13.3
    06/28/2015 01:15      2.0      193      6.4      176     72.0     72.2     71.8       58     1012     0.00        0     13.3
    06/28/2015 01:30      2.3      343      7.5      353     72.2     72.6     71.9       57     1012     0.00        0     13.3
    06/28/2015 01:45      2.0      276      4.6      314     72.6     72.8     72.4       57     1011     0.00        0     13.3
    06/28/2015 02:00      1.3      119      3.4       89     72.7     73.1     72.3       56     1012     0.00        0     13.2
    06/28/2015 02:15      1.6       97      4.7       72     72.8     73.1     72.6       57     1012     0.00        0     13.3
    06/28/2015 02:30      1.7       63      3.4       52     72.5     72.7     72.3       57     1012     0.00        0     13.3
    06/28/2015 02:45      1.5       64      3.1       75     72.5     72.7     72.2       57     1012     0.00        0     13.3
    06/28/2015 03:00      0.7      343      2.6        7     72.2     72.4     71.9       59     1012     0.00        0     13.3
    06/28/2015 03:15      1.4      180      2.6      164     71.6     72.1     71.3       61     1012     0.00        0     13.3
    06/28/2015 03:30      0.9      139      3.2      138     71.7     71.9     71.3       60     1012     0.00        0     13.3
    06/28/2015 03:45      0.0      225      1.0      231     71.4     71.7     71.0       61     1012     0.00        0     13.3
    06/28/2015 04:00      0.5      304      1.9      320     71.2     71.5     70.9       61     1012     0.00        0     13.3
    06/28/2015 04:15      0.4      254      1.8      255     70.7     71.3     70.2       63     1012     0.00        0     13.3
    06/28/2015 04:30      0.7      213      2.1      207     70.0     70.3     69.8       63     1012     0.00        0     13.3
    06/28/2015 04:45      0.9      155      2.8      124     70.2     70.6     69.8       61     1012     0.00        0     13.3
    06/28/2015 05:00      0.2      200      1.3      144     70.4     70.6     70.0       62     1012     0.00        5     13.3
    06/28/2015 05:15      0.5      294      1.4      290     69.8     70.2     69.6       64     1012     0.00       17     13.3
    06/28/2015 05:30      0.6       34      2.4       35     70.3     70.7     69.7       63     1012     0.00       32     13.3
    06/28/2015 05:45      0.8      156      1.7      147     70.3     70.5     70.0       64     1012     0.00       46     13.3
    06/28/2015 06:00      1.2       72      3.2       82     71.0     71.5     70.3       61     1012     0.00       46     13.3
    06/28/2015 06:15      1.5       75      3.8      104     71.4     71.8     71.2       61     1013     0.00       65     13.3
    06/28/2015 06:30      0.8       35      2.9      336     73.1     73.9     71.7       55     1013     0.00      169     13.3
    06/28/2015 06:45      1.6       26      3.9       46     73.9     74.2     73.7       56     1013     0.00      134     13.2
    06/28/2015 07:00      0.9      242      2.7      284     74.6     75.5     73.8       53     1013     0.00      334     13.2
    06/28/2015 07:15      0.6       62      2.1       40     76.6     77.7     75.2       49     1013     0.00      345     13.2
    06/28/2015 07:30      0.7      167      2.5      155     78.5     78.9     77.6       45     1013     0.00      339     13.2
    06/28/2015 07:45      1.5      207      3.1      212     78.8     79.3     78.3       45     1013     0.00      364     13.1
    06/28/2015 08:00      1.5      209      3.6      182     79.9     81.0     79.2       41     1013     0.00      465     13.1
    06/28/2015 08:15      2.9      162      5.2      164     81.6     82.5     80.8       41     1013     0.00      559     13.1
    06/28/2015 08:30      1.5      164      3.9      143     83.4     84.4     82.1       35     1013     0.00      588     13.1
    06/28/2015 08:45      2.4      155      5.0      153     84.4     85.0     83.8       33     1013     0.00      631     13.1
    06/28/2015 09:00      2.7      152      5.3      144     85.2     85.9     84.7       31     1013     0.00      680     13.1
    06/28/2015 09:15      3.3      134      7.1      143     86.0     87.1     85.2       29     1013     0.00      761     13.0
    06/28/2015 09:30      2.0      108      5.4      143     87.5     88.4     86.9       27     1013     0.00      778     13.0
    06/28/2015 09:45      2.8      138      6.2       71     87.8     88.6     86.7       29     1013     0.00      541     13.0
    06/28/2015 10:00      1.7       92      4.8       73     86.8     87.1     86.5       28     1013     0.00      355     13.0
    06/28/2015 10:15      1.7      146      4.9      116     87.2     87.6     86.7       27     1013     0.00      358     13.0
    06/28/2015 10:30      2.4      119      5.2      151     88.0     89.1     87.2       28     1013     0.00      732     13.0
    06/28/2015 10:45      1.9      192      5.0      167     89.9     91.2     89.1       25     1012     0.00      894     13.0
    06/28/2015 11:00      2.5      189      6.3      155     91.2     91.9     90.7       22     1012     0.00      893     13.0
    06/28/2015 11:15      2.5      147      6.6      138     92.1     93.5     91.2       24     1012     0.00      916     13.0
    06/28/2015 11:30      3.2      160      8.8      145     93.4     94.4     92.7       22     1012     0.00      929     13.0
    06/28/2015 11:45      2.4      116      6.8       98     95.0     95.5     94.4       19     1012     0.00      940     13.0
    06/28/2015 12:00      3.0      167      8.2      165     95.5     96.4     95.0       17     1012     0.00      896     13.0
    06/28/2015 12:15      1.8       99      7.1      154     96.7     97.6     95.9       17     1012     0.00      859     13.0
    06/28/2015 12:30      4.0      151      9.1      190     96.5     97.4     95.5       17     1012     0.00      700     12.9
    06/28/2015 12:45      1.5      225      5.0      219     97.8     98.6     96.4       15     1012     0.00      910     13.0
    06/28/2015 13:00      3.3      226      9.8      208     98.8     99.6     97.7       15     1011     0.00      869     12.9
    06/28/2015 13:15      3.8      197      8.8      147     99.4    100.0     98.8       15     1011     0.00      852     12.9
    06/28/2015 13:30      4.4      160      9.9      151     99.4    100.3     98.1       17     1011     0.00      800     12.9
    06/28/2015 13:45      4.6      122     11.8       90     98.4     98.9     97.7       18     1011     0.00      779     12.9
    06/28/2015 14:00      4.9      130      9.4       95     98.3     98.9     97.8       18     1011     0.00      774     12.9
    06/28/2015 14:15      4.2      129     11.0      125     99.5    100.8     98.4       16     1010     0.00      870     12.9
    06/28/2015 14:30      3.7      132     13.2      171     99.1    100.5     98.3       17     1010     0.00      764     12.9
    06/28/2015 14:45      3.4      297      8.7      311     99.3    100.2     98.5       11     1010     0.00      701     12.9
    06/28/2015 15:00      5.2      278     11.9      303    100.3    101.1     99.3       11     1010     0.00      776     12.9
    06/28/2015 15:15      6.1      278     13.0      253    100.0    100.6     99.3       10     1010     0.00      802     12.9
    06/28/2015 15:30      5.9      260     14.6      244     99.9    100.8     99.4       11     1010     0.00      774     12.9
    06/28/2015 15:45      6.4      278     13.6      253     98.3    100.6     97.2       14     1010     0.00      486     12.9
    06/28/2015 16:00      6.5      263     12.6      258     96.8     97.5     96.1       14     1010     0.00      486     12.9
    06/28/2015 16:15      6.4      274     12.0      252     96.0     96.4     95.6       13     1010     0.00      444     13.0
    06/28/2015 16:30      7.0      274     13.2      299     95.3     96.5     94.1       13     1010     0.00      313     13.0
    06/28/2015 16:45      6.4      276     15.0      244     93.6     94.3     92.8       15     1010     0.00      176     13.0
    06/28/2015 17:00      6.1      270     13.3      244     92.6     93.0     92.2       16     1009     0.00      124     13.0
    06/28/2015 17:15      6.1      265     12.4      252     91.4     92.2     90.4       20     1010     0.00      101     13.0
    06/28/2015 17:30      5.1      255      9.9      248     90.1     90.7     89.5       23     1010     0.00      153     13.0
    06/28/2015 17:45      5.3      246     10.8      260     89.3     89.8     88.8       22     1010     0.00      130     13.0
    06/28/2015 18:00      5.1      252     11.1      269     88.8     89.2     88.4       22     1010     0.00       96     13.1
    06/28/2015 18:15      5.1      253     12.2      249     88.0     88.6     87.5       21     1010     0.00       65     13.1
    06/28/2015 18:30      6.4      252     14.1      246     87.2     87.7     86.8       20     1010     0.00       52     13.1
    06/28/2015 18:45      4.9      246     10.4      233     86.6     87.1     86.1       21     1010     0.00       24     13.1
    06/28/2015 19:00      4.0      244      9.3      234     86.1     86.4     85.7       22     1010     0.00        9     13.1
    06/28/2015 19:15      2.8      228      8.5      248     85.3     85.9     84.8       23     1010     0.00        9     13.1
    06/28/2015 19:30      2.2      221      5.3      214     84.4     85.0     83.9       25     1010     0.00        2     13.1
    06/28/2015 19:45      2.1      229      4.4      228     83.8     84.1     83.6       26     1010     0.00        0     13.1
    06/28/2015 20:00      1.9      238      6.3      249     83.4     83.8     83.2       27     1010     0.00        0     13.1
    06/28/2015 20:15      2.4      238      7.0      252     83.2     83.5     82.9       28     1010     0.00        0     13.1
    06/28/2015 20:30      2.6      231      7.1      255     82.9     83.3     82.4       31     1011     0.00        0     13.1
    06/28/2015 20:45      1.3      219      3.2      212     81.9     82.4     81.4       31     1011     0.00        0     13.2
    06/28/2015 21:00      0.6      210      2.9      172     81.2     81.6     80.8       31     1011     0.00        0     13.2
    06/28/2015 21:15      2.0      187      4.7      196     80.5     81.1     80.1       32     1011     0.00        0     13.2
    06/28/2015 21:30      0.8      285      3.2      308     80.4     80.7     79.9       31     1011     0.00        0     13.2
    06/28/2015 21:45      2.6      239      6.6      255     80.2     80.7     79.7       31     1011     0.00        0     13.2
    06/28/2015 22:00      0.4      108      1.8       61     80.4     80.6     80.0       31     1011     0.00        0     13.2
    06/28/2015 22:15      0.7      242      4.4      248     79.5     80.2     79.0       34     1011     0.00        0     13.2
    06/28/2015 22:30      1.1      244      3.6      195     79.2     79.5     79.0       34     1011     0.00        0     13.2
    06/28/2015 22:45      1.1      193      3.3      152     79.3     79.7     79.0       32     1011     0.00        0     13.2
    06/28/2015 23:00      1.0      325      3.0      326     79.5     79.8     79.2       32     1011     0.00        0     13.2
    06/28/2015 23:15      0.6      191      2.0      194     79.2     79.8     78.5       34     1011     0.00        0     13.2
    06/28/2015 23:30      0.4      152      2.2      147     78.3     78.7     77.9       35     1011     0.00        0     13.2
    06/28/2015 23:45      0.3      134      1.8      147     78.0     78.3     77.8       35     1011     0.00        0     13.2
    06/29/2015 00:00      0.3      204      1.7      225     77.3     77.9     77.0       37     1011     0.00        0     13.2
    06/29/2015 00:15      0.4       71      3.3       65     77.5     77.7     77.2       36     1011     0.00        0     13.2
    06/29/2015 00:30      1.7       37      3.4       32     77.5     77.8     77.3       36     1011     0.00        0     13.2
    06/29/2015 00:45      1.2       77      4.1       75     76.9     77.7     76.2       42     1011     0.00        0     13.2
    06/29/2015 01:00      1.8       84      3.6       75     76.1     76.5     75.7       45     1011     0.00        0     13.2
    06/29/2015 01:15      0.8      126      2.9      150     75.2     75.9     74.4       50     1011     0.00        0     13.2
    06/29/2015 01:30      0.3      162      2.1      160     73.9     74.5     73.4       52     1011     0.00        0     13.3
    06/29/2015 01:45      0.0        0      0.0      286     73.3     73.8     73.0       53     1011     0.00        0     13.3
    06/29/2015 02:00      0.0        0      0.0      274     72.8     73.3     72.3       55     1011     0.00        0     13.3
    06/29/2015 02:15      1.0      152      2.4      147     72.3     72.5     72.0       55     1011     0.00        0     13.3
    06/29/2015 02:30      0.1      132      1.3      135     72.3     72.7     72.0       55     1010     0.00        0     13.3
    06/29/2015 02:45      0.6       70      2.5       85     72.5     72.9     72.2       54     1011     0.00        0     13.3
    06/29/2015 03:00      2.1       65      4.1       67     73.0     73.3     72.7       53     1011     0.00        0     13.3
    06/29/2015 03:15      1.5       58      4.0       69     72.8     73.1     72.5       54     1011     0.00        0     13.3
    06/29/2015 03:30      1.4       41      3.4       48     72.5     72.8     72.3       54     1011     0.00        0     13.3
    06/29/2015 03:45      0.7       40      2.2       21     72.4     72.7     72.0       54     1010     0.00        0     13.3
    06/29/2015 04:00      0.2      274      1.4      294     71.7     72.3     71.3       56     1010     0.00        0     13.3
    06/29/2015 04:15      0.0      336      0.5      332     71.4     71.7     71.2       56     1010     0.00        0     13.3
    06/29/2015 04:30      0.2       41      1.8       41     71.5     71.7     71.3       56     1011     0.00        0     13.3
    06/29/2015 04:45      0.5      166      1.4      152     71.2     71.9     70.5       60     1011     0.00        2     13.3
    06/29/2015 05:00      0.4      137      1.4      135     70.8     71.3     70.5       57     1011     0.00       14     13.3
    06/29/2015 05:15      0.0       75      0.8      101     71.5     71.8     71.2       57     1011     0.00       35     13.3
    06/29/2015 05:30      0.4       64      1.7       67     72.0     72.4     71.6       55     1011     0.00       45     13.3
    06/29/2015 05:45      0.9       78      2.5       71     72.7     73.2     72.3       53     1011     0.00       64     13.3
    06/29/2015 06:00      1.8       87      3.9       79     73.5     74.4     73.0       52     1011     0.00      135     13.3
    06/29/2015 06:15      1.9       86      3.9       85     74.9     75.3     74.3       51     1011     0.00      224     13.2
    06/29/2015 06:30      0.6       83      3.1       66     76.6     78.1     75.1       46     1011     0.00      321     13.2
    06/29/2015 06:45      1.6      108      3.8       77     78.4     79.0     77.9       45     1012     0.00      360     13.2
    06/29/2015 07:00      1.6      103      3.8       80     78.7     79.2     78.1       44     1012     0.00      290     13.1
    06/29/2015 07:15      1.8      155      4.5       80     78.3     78.8     77.7       44     1012     0.00      326     13.1
    06/29/2015 07:30      1.6      141      4.3      144     79.2     80.5     78.5       40     1012     0.00      395     13.1
    06/29/2015 07:45      1.0      145      3.0      186     80.4     81.0     79.7       41     1012     0.00      200     13.1
    06/29/2015 08:00      1.3      110      3.3      137     79.9     80.2     79.6       40     1012     0.00      164     13.1
    06/29/2015 08:15      0.7      170      2.9      137     80.6     81.1     80.0       37     1012     0.00      240     13.1
    06/29/2015 08:30      1.2      174      3.5       98     81.9     82.9     80.8       34     1012     0.00      385     13.1
    06/29/2015 08:45      1.8      165      3.6      169     82.7     83.4     82.1       33     1012     0.00      486     13.1
    06/29/2015 09:00      1.2      134      3.0       96     84.6     85.7     83.0       32     1012     0.00      496     13.1
    06/29/2015 09:15      2.1      171      4.3      123     86.0     86.7     85.2       30     1012     0.00      804     13.1
    06/29/2015 09:30      2.0      186      5.4      151     86.9     88.0     86.2       29     1012     0.00      686     13.0
    06/29/2015 09:45      1.7      209      4.1      176     88.3     89.5     87.3       29     1012     0.00      704     13.0
    06/29/2015 10:00      1.7      146      4.7      142     88.9     89.9     88.1       27     1012     0.00      542     13.0
    06/29/2015 10:15      2.1      131      4.7       88     89.8     90.4     89.2       28     1012     0.00      484     13.0
    06/29/2015 10:30      2.7      145      5.4      135     90.1     91.3     89.0       24     1012     0.00      499     13.0
    06/29/2015 10:45      2.4      131      5.7      177     91.4     92.5     90.8       24     1012     0.00      693     13.0
    06/29/2015 11:00      2.6      100      5.4      134     92.5     93.6     91.3       20     1011     0.00      933     13.0
    06/29/2015 11:15      2.5       98      5.9       66     93.9     94.9     92.9       21     1011     0.00      891     13.0
    06/29/2015 11:30      3.3      132      9.5      181     94.7     95.2     94.1       23     1011     0.00      883     13.0
    06/29/2015 11:45      2.8      156      7.1      166     94.7     95.2     94.1       22     1011     0.00      884     13.0
    06/29/2015 12:00      2.8      150      7.1      129     96.2     97.5     94.7       19     1011     0.00      892     13.0
    06/29/2015 12:15      3.0      122      7.9      122     96.1     96.9     95.5       21     1011     0.00      877     13.0
    06/29/2015 12:30      3.2      139      8.5      148     97.1     97.5     96.2       17     1011     0.00      899     12.9
    06/29/2015 12:45      3.5       96      8.4       77     97.2     97.8     96.6       17     1011     0.00      709     13.0
    06/29/2015 13:00      4.5      102      8.1      128     97.3     97.9     96.9       17     1011     0.00      768     13.0
    06/29/2015 13:15      4.2      121      9.3       93     97.9     98.6     97.1       17     1010     0.00      867     12.9
    06/29/2015 13:30      4.4      134      9.9       87     98.7     99.1     98.3       16     1010     0.00      854     12.9
    06/29/2015 13:45      4.6      126      9.2      133     98.9     99.5     98.2       17     1010     0.00      855     12.9
    06/29/2015 14:00      4.1      122      8.4      134     99.5    100.5     98.1       16     1010     0.00      854     12.9
    06/29/2015 14:15      4.0      127      8.6      174    100.8    102.2     99.6       14     1010     0.00      768     12.9
    06/29/2015 14:30      3.5      111      9.1      101    100.1    101.2     99.3       13     1010     0.00      642     12.9
    06/29/2015 14:45      5.0      120     10.8       86    100.7    101.7     99.4       15     1010     0.00      550     12.9
    06/29/2015 15:00      5.0      128     11.7      153     99.4     99.9     98.7       14     1010     0.00      456     12.9
    06/29/2015 15:15      4.3      134      8.1       82     98.5     99.1     97.6       14     1010     0.00      424     12.9
    06/29/2015 15:30      3.7      116      7.8      154     96.9     97.8     96.3       15     1010     0.00      280     12.9
    06/29/2015 15:45      4.0      112      8.9      135     95.8     96.6     95.3       15     1010     0.00      231     13.0
    06/29/2015 16:00      3.3      119      9.6      128     95.2     95.7     94.9       16     1010     0.00      214     13.0
    06/29/2015 16:15      4.3       82      8.8       87     94.7     95.3     93.8       16     1010     0.00      258     13.0
    06/29/2015 16:30      3.1      103      9.4      101     93.1     94.0     92.1       17     1010     0.00      141     13.0
    06/29/2015 16:45      3.5       86      7.5       72     91.4     92.1     91.0       17     1010     0.00      158     13.0
    06/29/2015 17:00      3.3       98      6.6       86     91.4     91.7     91.2       17     1010     0.00      245     13.0
    06/29/2015 17:15      3.4       97      7.6       79     91.0     91.7     90.1       21     1010     0.00      194     13.0
    06/29/2015 17:30      4.2       92      7.6       94     90.0     90.6     89.2       24     1010     0.00      224     13.0
    06/29/2015 17:45      3.0      104      5.9      104     89.1     89.7     88.5       25     1010     0.00       80     13.0
    06/29/2015 18:00      2.4       94      6.1       78     88.2     88.8     87.9       25     1010     0.00       62     13.0
    06/29/2015 18:15      2.0       94      4.3       76     87.9     88.1     87.7       25     1010     0.00       50     13.1
    06/29/2015 18:30      2.3      102      5.2       99     88.1     88.4     87.7       25     1010     0.00       35     13.1
    06/29/2015 18:45      2.9      100      6.4       85     87.2     88.0     86.4       27     1010     0.00       23     13.1
    06/29/2015 19:00      2.3       95      5.3       86     85.9     86.6     85.3       28     1010     0.00       10     13.1
    06/29/2015 19:15      1.7      108      4.0       81     85.0     85.5     84.6       30     1010     0.00        4     13.1
    06/29/2015 19:30      1.7      105      5.1       85     84.2     84.8     83.6       31     1010     0.00        0     13.1
    06/29/2015 19:45      2.7       94      6.8      104     83.3     83.8     82.7       31     1010     0.00        0     13.1
    06/29/2015 20:00      3.4       82      7.0       87     81.9     82.8     81.4       34     1011     0.00        0     13.1
    06/29/2015 20:15      3.7       67      7.3       54     80.9     81.6     80.0       35     1011     0.00        0     13.1
    06/29/2015 20:30      4.3       58      7.1       69     79.4     80.1     78.7       36     1011     0.00        0     13.2
    06/29/2015 20:45      4.1       70      6.8       42     78.3     78.9     77.9       39     1011     0.00        0     13.2
    06/29/2015 21:00      3.1       77      6.4       88     77.7     78.0     77.3       40     1011     0.00        0     13.2
    06/29/2015 21:15      3.3       73      5.5       74     77.5     77.6     77.3       40     1012     0.00        0     13.2
    06/29/2015 21:30      1.8       99      3.7       76     77.4     77.6     77.2       40     1012     0.00        0     13.2
    06/29/2015 21:45      1.1       69      4.6       82     77.2     77.5     76.9       40     1012     0.00        0     13.2